sensor_id;sensor_type;location;lat;lon;timestamp;temperature;humidity
75987;DHT22;64671;44.726;37.764;2022-12-11T00:00:47;20.32;60.35
75987;DHT22;64671;44.726;37.764;2022-12-11T00:01:48;20.33;60.36
75987;DHT22;64671;44.726;37.764;2022-12-11T00:02:49;20.31;60.31
75987;DHT22;64671;44.726;37.764;2022-12-11T00:04:54;20.31;60.36
75987;DHT22;64671;44.726;37.764;2022-12-11T00:05:55;20.32;60.34
75987;DHT22;64671;44.726;37.764;2022-12-11T00:06:56;20.31;60.31
75987;DHT22;64671;44.726;37.764;2022-12-11T00:07:58;20.31;60.33
75987;DHT22;64671;44.726;37.764;2022-12-11T00:10:03;20.30;60.38
75987;DHT22;64671;44.726;37.764;2022-12-11T00:11:07;20.31;60.39
75987;DHT22;64671;44.726;37.764;2022-12-11T00:13:35;20.29;60.41
75987;DHT22;64671;44.726;37.764;2022-12-11T00:14:36;20.29;60.44
75987;DHT22;64671;44.726;37.764;2022-12-11T00:15:37;20.28;60.43
75987;DHT22;64671;44.726;37.764;2022-12-11T00:16:39;20.29;60.42
75987;DHT22;64671;44.726;37.764;2022-12-11T00:17:41;20.29;60.43
75987;DHT22;64671;44.726;37.764;2022-12-11T00:18:43;20.29;60.38
75987;DHT22;64671;44.726;37.764;2022-12-11T00:19:44;20.28;60.46
75987;DHT22;64671;44.726;37.764;2022-12-11T00:21:56;20.28;60.54
75987;DHT22;64671;44.726;37.764;2022-12-11T00:22:57;20.27;60.52
75987;DHT22;64671;44.726;37.764;2022-12-11T00:24:54;20.27;60.54
75987;DHT22;64671;44.726;37.764;2022-12-11T00:27:06;20.27;60.57
75987;DHT22;64671;44.726;37.764;2022-12-11T00:28:56;20.26;60.57
75987;DHT22;64671;44.726;37.764;2022-12-11T00:29:57;20.27;60.53
75987;DHT22;64671;44.726;37.764;2022-12-11T00:31:05;20.26;60.55
75987;DHT22;64671;44.726;37.764;2022-12-11T00:35:59;20.26;60.54
75987;DHT22;64671;44.726;37.764;2022-12-11T00:37:00;20.22;60.58
75987;DHT22;64671;44.726;37.764;2022-12-11T00:38:01;20.25;60.58
75987;DHT22;64671;44.726;37.764;2022-12-11T00:39:04;20.22;60.63
75987;DHT22;64671;44.726;37.764;2022-12-11T00:40:06;20.24;60.62
75987;DHT22;64671;44.726;37.764;2022-12-11T00:41:07;20.22;60.58
75987;DHT22;64671;44.726;37.764;2022-12-11T00:42:09;20.22;60.57
75987;DHT22;64671;44.726;37.764;2022-12-11T00:43:11;20.24;60.61
75987;DHT22;64671;44.726;37.764;2022-12-11T00:44:12;20.24;60.55
75987;DHT22;64671;44.726;37.764;2022-12-11T00:46:09;20.21;60.66
75987;DHT22;64671;44.726;37.764;2022-12-11T00:47:10;20.24;60.65
75987;DHT22;64671;44.726;37.764;2022-12-11T00:48:12;20.22;60.58
75987;DHT22;64671;44.726;37.764;2022-12-11T00:50:54;20.24;60.60
75987;DHT22;64671;44.726;37.764;2022-12-11T00:52:44;20.22;60.60
75987;DHT22;64671;44.726;37.764;2022-12-11T00:59:02;20.20;60.66
75987;DHT22;64671;44.726;37.764;2022-12-11T01:00:04;20.20;60.67
75987;DHT22;64671;44.726;37.764;2022-12-11T01:01:10;20.19;60.70
75987;DHT22;64671;44.726;37.764;2022-12-11T01:02:11;20.19;60.68
75987;DHT22;64671;44.726;37.764;2022-12-11T01:03:13;20.19;60.77
75987;DHT22;64671;44.726;37.764;2022-12-11T01:05:34;20.18;60.70
75987;DHT22;64671;44.726;37.764;2022-12-11T01:06:36;20.19;60.78
75987;DHT22;64671;44.726;37.764;2022-12-11T01:07:37;20.19;60.78
75987;DHT22;64671;44.726;37.764;2022-12-11T01:08:38;20.17;60.77
75987;DHT22;64671;44.726;37.764;2022-12-11T01:09:40;20.18;60.71
75987;DHT22;64671;44.726;37.764;2022-12-11T01:11:04;20.18;60.76
75987;DHT22;64671;44.726;37.764;2022-12-11T01:13:09;20.17;61.03
75987;DHT22;64671;44.726;37.764;2022-12-11T01:14:11;20.17;61.47
75987;DHT22;64671;44.726;37.764;2022-12-11T01:15:13;20.18;60.79
75987;DHT22;64671;44.726;37.764;2022-12-11T01:16:14;20.16;60.92
75987;DHT22;64671;44.726;37.764;2022-12-11T01:17:15;20.18;60.78
75987;DHT22;64671;44.726;37.764;2022-12-11T01:19:13;20.17;60.83
75987;DHT22;64671;44.726;37.764;2022-12-11T01:20:14;20.18;60.74
75987;DHT22;64671;44.726;37.764;2022-12-11T01:21:16;20.18;60.84
75987;DHT22;64671;44.726;37.764;2022-12-11T01:22:17;20.17;60.82
75987;DHT22;64671;44.726;37.764;2022-12-11T01:23:18;20.18;60.99
75987;DHT22;64671;44.726;37.764;2022-12-11T01:24:20;20.18;61.05
75987;DHT22;64671;44.726;37.764;2022-12-11T01:25:21;20.18;60.95
75987;DHT22;64671;44.726;37.764;2022-12-11T01:26:23;20.19;60.93
75987;DHT22;64671;44.726;37.764;2022-12-11T01:27:24;20.19;60.88
75987;DHT22;64671;44.726;37.764;2022-12-11T01:31:34;20.19;61.05
75987;DHT22;64671;44.726;37.764;2022-12-11T01:32:35;20.19;61.06
75987;DHT22;64671;44.726;37.764;2022-12-11T01:33:37;20.20;61.02
75987;DHT22;64671;44.726;37.764;2022-12-11T01:34:39;20.18;60.89
75987;DHT22;64671;44.726;37.764;2022-12-11T01:35:40;20.19;60.80
75987;DHT22;64671;44.726;37.764;2022-12-11T01:39:17;20.19;61.06
75987;DHT22;64671;44.726;37.764;2022-12-11T01:41:16;20.18;61.02
75987;DHT22;64671;44.726;37.764;2022-12-11T01:42:19;20.19;60.93
75987;DHT22;64671;44.726;37.764;2022-12-11T01:46:21;20.18;60.98
75987;DHT22;64671;44.726;37.764;2022-12-11T01:47:22;20.18;61.02
75987;DHT22;64671;44.726;37.764;2022-12-11T01:48:28;20.17;61.06
75987;DHT22;64671;44.726;37.764;2022-12-11T01:51:11;20.19;61.02
75987;DHT22;64671;44.726;37.764;2022-12-11T01:52:17;20.17;61.09
75987;DHT22;64671;44.726;37.764;2022-12-11T01:53:22;20.18;61.12
75987;DHT22;64671;44.726;37.764;2022-12-11T01:54:25;20.17;61.05
75987;DHT22;64671;44.726;37.764;2022-12-11T01:55:27;20.18;61.05
75987;DHT22;64671;44.726;37.764;2022-12-11T01:56:30;20.17;61.07
75987;DHT22;64671;44.726;37.764;2022-12-11T01:57:32;20.17;61.08
75987;DHT22;64671;44.726;37.764;2022-12-11T01:58:40;20.18;60.99
75987;DHT22;64671;44.726;37.764;2022-12-11T01:59:44;20.19;60.99
75987;DHT22;64671;44.726;37.764;2022-12-11T02:00:46;20.18;60.93
75987;DHT22;64671;44.726;37.764;2022-12-11T02:03:03;20.19;60.96
75987;DHT22;64671;44.726;37.764;2022-12-11T02:04:06;20.18;60.95
75987;DHT22;64671;44.726;37.764;2022-12-11T02:06:00;20.19;60.99
75987;DHT22;64671;44.726;37.764;2022-12-11T02:07:02;20.17;60.86
75987;DHT22;64671;44.726;37.764;2022-12-11T02:08:59;20.18;60.91
75987;DHT22;64671;44.726;37.764;2022-12-11T02:11:17;20.17;60.86
75987;DHT22;64671;44.726;37.764;2022-12-11T02:13:36;20.17;60.89
75987;DHT22;64671;44.726;37.764;2022-12-11T02:17:18;20.17;60.80
75987;DHT22;64671;44.726;37.764;2022-12-11T02:18:33;20.17;60.75
75987;DHT22;64671;44.726;37.764;2022-12-11T02:21:31;20.16;60.81
75987;DHT22;64671;44.726;37.764;2022-12-11T02:22:57;20.15;60.84
75987;DHT22;64671;44.726;37.764;2022-12-11T02:28:40;20.16;60.82
75987;DHT22;64671;44.726;37.764;2022-12-11T02:32:29;20.15;60.74
75987;DHT22;64671;44.726;37.764;2022-12-11T02:34:56;20.14;60.77
75987;DHT22;64671;44.726;37.764;2022-12-11T02:35:59;20.15;60.80
75987;DHT22;64671;44.726;37.764;2022-12-11T02:38:28;20.15;60.80
75987;DHT22;64671;44.726;37.764;2022-12-11T02:40:51;20.15;60.82
75987;DHT22;64671;44.726;37.764;2022-12-11T02:41:54;20.14;60.75
75987;DHT22;64671;44.726;37.764;2022-12-11T02:42:57;20.14;60.79
75987;DHT22;64671;44.726;37.764;2022-12-11T02:44:02;20.13;60.70
75987;DHT22;64671;44.726;37.764;2022-12-11T02:45:07;20.14;60.73
75987;DHT22;64671;44.726;37.764;2022-12-11T02:46:10;20.13;60.74
75987;DHT22;64671;44.726;37.764;2022-12-11T02:49:27;20.13;60.76
75987;DHT22;64671;44.726;37.764;2022-12-11T02:50:29;20.12;60.70
75987;DHT22;64671;44.726;37.764;2022-12-11T02:51:35;20.13;60.78
75987;DHT22;64671;44.726;37.764;2022-12-11T02:55:26;20.12;60.67
75987;DHT22;64671;44.726;37.764;2022-12-11T02:58:17;20.11;60.69
75987;DHT22;64671;44.726;37.764;2022-12-11T02:59:43;20.12;60.65
75987;DHT22;64671;44.726;37.764;2022-12-11T03:00:45;20.12;60.63
75987;DHT22;64671;44.726;37.764;2022-12-11T03:02:42;20.11;60.64
75987;DHT22;64671;44.726;37.764;2022-12-11T03:03:44;20.11;60.60
75987;DHT22;64671;44.726;37.764;2022-12-11T03:04:46;20.11;60.64
75987;DHT22;64671;44.726;37.764;2022-12-11T03:05:48;20.10;60.63
75987;DHT22;64671;44.726;37.764;2022-12-11T03:06:50;20.11;60.63
75987;DHT22;64671;44.726;37.764;2022-12-11T03:09:04;20.10;60.65
75987;DHT22;64671;44.726;37.764;2022-12-11T03:15:21;20.09;60.65
75987;DHT22;64671;44.726;37.764;2022-12-11T03:16:41;20.07;60.65
75987;DHT22;64671;44.726;37.764;2022-12-11T03:21:05;20.06;60.70
75987;DHT22;64671;44.726;37.764;2022-12-11T03:24:40;20.05;60.81
75987;DHT22;64671;44.726;37.764;2022-12-11T03:28:01;20.05;60.76
75987;DHT22;64671;44.726;37.764;2022-12-11T03:29:31;20.04;60.73
75987;DHT22;64671;44.726;37.764;2022-12-11T03:30:35;20.04;60.73
75987;DHT22;64671;44.726;37.764;2022-12-11T03:32:01;20.04;60.80
75987;DHT22;64671;44.726;37.764;2022-12-11T03:33:10;20.03;60.81
75987;DHT22;64671;44.726;37.764;2022-12-11T03:36:00;20.03;60.72
75987;DHT22;64671;44.726;37.764;2022-12-11T03:41:26;20.03;60.70
75987;DHT22;64671;44.726;37.764;2022-12-11T03:43:19;20.04;60.68
75987;DHT22;64671;44.726;37.764;2022-12-11T03:44:21;20.03;60.75
75987;DHT22;64671;44.726;37.764;2022-12-11T03:46:12;20.04;60.62
75987;DHT22;64671;44.726;37.764;2022-12-11T03:47:20;20.04;60.64
75987;DHT22;64671;44.726;37.764;2022-12-11T03:48:24;20.03;60.70
75987;DHT22;64671;44.726;37.764;2022-12-11T03:49:30;20.03;60.66
75987;DHT22;64671;44.726;37.764;2022-12-11T03:50:34;20.04;60.67
75987;DHT22;64671;44.726;37.764;2022-12-11T03:53:12;20.02;60.65
75987;DHT22;64671;44.726;37.764;2022-12-11T03:54:14;20.03;60.67
75987;DHT22;64671;44.726;37.764;2022-12-11T03:55:18;20.02;60.69
75987;DHT22;64671;44.726;37.764;2022-12-11T03:56:21;20.03;60.64
75987;DHT22;64671;44.726;37.764;2022-12-11T03:57:28;20.03;60.70
75987;DHT22;64671;44.726;37.764;2022-12-11T03:58:30;20.03;60.64
75987;DHT22;64671;44.726;37.764;2022-12-11T03:59:32;20.02;60.60
75987;DHT22;64671;44.726;37.764;2022-12-11T04:02:48;20.03;60.60
75987;DHT22;64671;44.726;37.764;2022-12-11T04:04:10;20.04;60.67
75987;DHT22;64671;44.726;37.764;2022-12-11T04:05:11;20.03;60.57
75987;DHT22;64671;44.726;37.764;2022-12-11T04:06:12;20.03;60.57
75987;DHT22;64671;44.726;37.764;2022-12-11T04:07:14;20.03;60.55
75987;DHT22;64671;44.726;37.764;2022-12-11T04:08:16;20.03;60.54
75987;DHT22;64671;44.726;37.764;2022-12-11T04:11:31;20.03;60.52
75987;DHT22;64671;44.726;37.764;2022-12-11T04:13:23;20.02;60.62
75987;DHT22;64671;44.726;37.764;2022-12-11T04:14:25;20.03;60.54
75987;DHT22;64671;44.726;37.764;2022-12-11T04:15:45;20.02;60.51
75987;DHT22;64671;44.726;37.764;2022-12-11T04:16:46;20.02;60.56
75987;DHT22;64671;44.726;37.764;2022-12-11T04:18:35;20.02;60.54
75987;DHT22;64671;44.726;37.764;2022-12-11T04:19:55;20.02;60.55
75987;DHT22;64671;44.726;37.764;2022-12-11T04:21:15;20.00;60.71
75987;DHT22;64671;44.726;37.764;2022-12-11T04:22:35;20.01;60.93
75987;DHT22;64671;44.726;37.764;2022-12-11T04:23:55;20.01;61.18
75987;DHT22;64671;44.726;37.764;2022-12-11T04:25:14;20.01;60.82
75987;DHT22;64671;44.726;37.764;2022-12-11T04:26:18;20.01;60.73
75987;DHT22;64671;44.726;37.764;2022-12-11T04:30:48;20.00;60.73
75987;DHT22;64671;44.726;37.764;2022-12-11T04:32:53;19.98;60.72
75987;DHT22;64671;44.726;37.764;2022-12-11T04:34:43;20.00;60.76
75987;DHT22;64671;44.726;37.764;2022-12-11T04:35:44;20.00;60.77
75987;DHT22;64671;44.726;37.764;2022-12-11T04:36:46;20.00;60.70
75987;DHT22;64671;44.726;37.764;2022-12-11T04:37:47;20.00;60.70
75987;DHT22;64671;44.726;37.764;2022-12-11T04:38:49;20.00;60.89
75987;DHT22;64671;44.726;37.764;2022-12-11T04:39:50;20.00;60.80
75987;DHT22;64671;44.726;37.764;2022-12-11T04:41:06;19.98;60.70
75987;DHT22;64671;44.726;37.764;2022-12-11T04:42:07;19.99;60.73
75987;DHT22;64671;44.726;37.764;2022-12-11T04:43:09;20.00;60.69
75987;DHT22;64671;44.726;37.764;2022-12-11T04:44:10;20.00;60.70
75987;DHT22;64671;44.726;37.764;2022-12-11T04:46:09;19.99;60.70
75987;DHT22;64671;44.726;37.764;2022-12-11T04:47:11;19.98;60.83
75987;DHT22;64671;44.726;37.764;2022-12-11T04:48:12;19.99;60.72
75987;DHT22;64671;44.726;37.764;2022-12-11T04:49:13;19.98;60.70
75987;DHT22;64671;44.726;37.764;2022-12-11T04:50:15;19.99;60.70
75987;DHT22;64671;44.726;37.764;2022-12-11T04:51:17;19.98;60.66
75987;DHT22;64671;44.726;37.764;2022-12-11T04:52:22;19.99;60.64
75987;DHT22;64671;44.726;37.764;2022-12-11T04:53:23;19.98;60.70
75987;DHT22;64671;44.726;37.764;2022-12-11T04:54:25;19.98;60.67
75987;DHT22;64671;44.726;37.764;2022-12-11T04:55:26;19.98;60.66
75987;DHT22;64671;44.726;37.764;2022-12-11T04:56:27;19.97;60.72
75987;DHT22;64671;44.726;37.764;2022-12-11T04:57:29;19.98;60.64
75987;DHT22;64671;44.726;37.764;2022-12-11T04:58:30;19.98;60.66
75987;DHT22;64671;44.726;37.764;2022-12-11T04:59:32;19.99;60.64
75987;DHT22;64671;44.726;37.764;2022-12-11T05:00:33;19.98;60.64
75987;DHT22;64671;44.726;37.764;2022-12-11T05:01:34;19.98;60.59
75987;DHT22;64671;44.726;37.764;2022-12-11T05:02:37;19.99;60.60
75987;DHT22;64671;44.726;37.764;2022-12-11T05:03:39;19.98;60.60
75987;DHT22;64671;44.726;37.764;2022-12-11T05:04:40;19.98;60.57
75987;DHT22;64671;44.726;37.764;2022-12-11T05:06:53;19.98;60.67
75987;DHT22;64671;44.726;37.764;2022-12-11T05:07:54;19.99;60.55
75987;DHT22;64671;44.726;37.764;2022-12-11T05:08:55;19.97;60.60
75987;DHT22;64671;44.726;37.764;2022-12-11T05:11:15;19.97;60.65
75987;DHT22;64671;44.726;37.764;2022-12-11T05:14:27;19.97;60.62
75987;DHT22;64671;44.726;37.764;2022-12-11T05:15:31;19.97;60.53
75987;DHT22;64671;44.726;37.764;2022-12-11T05:16:33;19.96;60.62
75987;DHT22;64671;44.726;37.764;2022-12-11T05:17:34;19.97;60.65
75987;DHT22;64671;44.726;37.764;2022-12-11T05:18:35;19.97;60.64
75987;DHT22;64671;44.726;37.764;2022-12-11T05:19:37;19.97;60.64
75987;DHT22;64671;44.726;37.764;2022-12-11T05:25:26;19.96;60.64
75987;DHT22;64671;44.726;37.764;2022-12-11T05:26:27;19.96;60.68
75987;DHT22;64671;44.726;37.764;2022-12-11T05:27:29;19.95;60.82
75987;DHT22;64671;44.726;37.764;2022-12-11T05:28:31;19.95;60.69
75987;DHT22;64671;44.726;37.764;2022-12-11T05:29:33;19.94;60.78
75987;DHT22;64671;44.726;37.764;2022-12-11T05:31:57;19.92;60.72
75987;DHT22;64671;44.726;37.764;2022-12-11T05:32:59;19.92;61.17
75987;DHT22;64671;44.726;37.764;2022-12-11T05:34:00;19.94;60.92
75987;DHT22;64671;44.726;37.764;2022-12-11T05:37:33;19.94;60.83
75987;DHT22;64671;44.726;37.764;2022-12-11T05:38:35;19.91;60.74
75987;DHT22;64671;44.726;37.764;2022-12-11T05:39:37;19.94;60.72
75987;DHT22;64671;44.726;37.764;2022-12-11T05:40:38;19.94;60.70
75987;DHT22;64671;44.726;37.764;2022-12-11T05:42:27;19.92;60.70
75987;DHT22;64671;44.726;37.764;2022-12-11T05:43:31;19.92;60.72
75987;DHT22;64671;44.726;37.764;2022-12-11T05:44:33;19.94;60.70
75987;DHT22;64671;44.726;37.764;2022-12-11T05:45:35;19.94;60.73
75987;DHT22;64671;44.726;37.764;2022-12-11T05:46:36;19.94;60.67
75987;DHT22;64671;44.726;37.764;2022-12-11T05:47:38;19.94;60.64
75987;DHT22;64671;44.726;37.764;2022-12-11T05:48:41;19.94;60.67
75987;DHT22;64671;44.726;37.764;2022-12-11T05:49:43;19.94;60.67
75987;DHT22;64671;44.726;37.764;2022-12-11T05:50:44;19.95;60.65
75987;DHT22;64671;44.726;37.764;2022-12-11T05:51:55;19.96;60.59
75987;DHT22;64671;44.726;37.764;2022-12-11T05:52:57;19.96;60.57
75987;DHT22;64671;44.726;37.764;2022-12-11T05:53:58;19.95;60.56
75987;DHT22;64671;44.726;37.764;2022-12-11T05:55:00;19.96;60.58
75987;DHT22;64671;44.726;37.764;2022-12-11T05:56:12;19.95;60.66
75987;DHT22;64671;44.726;37.764;2022-12-11T05:57:16;19.96;60.54
75987;DHT22;64671;44.726;37.764;2022-12-11T05:58:19;19.95;60.55
75987;DHT22;64671;44.726;37.764;2022-12-11T05:59:21;19.95;60.54
75987;DHT22;64671;44.726;37.764;2022-12-11T06:00:22;19.95;60.63
75987;DHT22;64671;44.726;37.764;2022-12-11T06:01:40;19.96;60.63
75987;DHT22;64671;44.726;37.764;2022-12-11T06:02:42;19.96;60.59
75987;DHT22;64671;44.726;37.764;2022-12-11T06:03:44;19.95;60.51
75987;DHT22;64671;44.726;37.764;2022-12-11T06:04:45;19.95;60.54
75987;DHT22;64671;44.726;37.764;2022-12-11T06:05:46;19.95;60.54
75987;DHT22;64671;44.726;37.764;2022-12-11T06:06:48;19.95;60.54
75987;DHT22;64671;44.726;37.764;2022-12-11T06:07:49;19.96;60.60
75987;DHT22;64671;44.726;37.764;2022-12-11T06:08:55;19.95;60.58
75987;DHT22;64671;44.726;37.764;2022-12-11T06:09:56;19.95;60.55
75987;DHT22;64671;44.726;37.764;2022-12-11T06:10:58;19.94;60.57
75987;DHT22;64671;44.726;37.764;2022-12-11T06:11:59;19.94;60.58
75987;DHT22;64671;44.726;37.764;2022-12-11T06:13:01;19.95;60.57
75987;DHT22;64671;44.726;37.764;2022-12-11T06:14:02;19.94;60.62
75987;DHT22;64671;44.726;37.764;2022-12-11T06:15:04;19.94;60.57
75987;DHT22;64671;44.726;37.764;2022-12-11T06:16:06;19.94;60.55
75987;DHT22;64671;44.726;37.764;2022-12-11T06:17:08;19.94;60.56
75987;DHT22;64671;44.726;37.764;2022-12-11T06:18:09;19.94;60.52
75987;DHT22;64671;44.726;37.764;2022-12-11T06:19:15;19.96;60.58
75987;DHT22;64671;44.726;37.764;2022-12-11T06:20:18;19.95;60.74
75987;DHT22;64671;44.726;37.764;2022-12-11T06:21:20;19.95;60.66
75987;DHT22;64671;44.726;37.764;2022-12-11T06:22:22;19.94;60.67
75987;DHT22;64671;44.726;37.764;2022-12-11T06:23:23;19.95;60.62
75987;DHT22;64671;44.726;37.764;2022-12-11T06:24:25;19.95;60.59
75987;DHT22;64671;44.726;37.764;2022-12-11T06:27:00;19.94;60.60
75987;DHT22;64671;44.726;37.764;2022-12-11T06:28:01;19.94;60.73
75987;DHT22;64671;44.726;37.764;2022-12-11T06:29:02;19.92;60.58
75987;DHT22;64671;44.726;37.764;2022-12-11T06:30:04;19.94;60.65
75987;DHT22;64671;44.726;37.764;2022-12-11T06:31:06;19.92;60.65
75987;DHT22;64671;44.726;37.764;2022-12-11T06:32:07;19.94;60.70
75987;DHT22;64671;44.726;37.764;2022-12-11T06:33:09;19.95;61.36
75987;DHT22;64671;44.726;37.764;2022-12-11T06:34:11;19.92;60.68
75987;DHT22;64671;44.726;37.764;2022-12-11T06:35:13;19.92;60.73
75987;DHT22;64671;44.726;37.764;2022-12-11T06:36:19;19.94;61.28
75987;DHT22;64671;44.726;37.764;2022-12-11T06:37:20;19.95;61.24
75987;DHT22;64671;44.726;37.764;2022-12-11T06:38:22;19.95;61.13
75987;DHT22;64671;44.726;37.764;2022-12-11T06:39:23;19.96;61.29
75987;DHT22;64671;44.726;37.764;2022-12-11T06:40:24;19.96;61.08
75987;DHT22;64671;44.726;37.764;2022-12-11T06:41:25;19.96;60.99
75987;DHT22;64671;44.726;37.764;2022-12-11T06:42:28;19.96;60.91
75987;DHT22;64671;44.726;37.764;2022-12-11T06:43:30;19.96;61.01
75987;DHT22;64671;44.726;37.764;2022-12-11T06:44:32;19.96;61.25
75987;DHT22;64671;44.726;37.764;2022-12-11T06:45:34;19.96;61.48
75987;DHT22;64671;44.726;37.764;2022-12-11T06:46:36;19.97;61.49
75987;DHT22;64671;44.726;37.764;2022-12-11T06:47:38;19.98;61.22
75987;DHT22;64671;44.726;37.764;2022-12-11T06:48:39;19.99;61.13
75987;DHT22;64671;44.726;37.764;2022-12-11T06:49:42;19.97;61.08
75987;DHT22;64671;44.726;37.764;2022-12-11T06:50:43;19.98;61.27
75987;DHT22;64671;44.726;37.764;2022-12-11T06:51:44;19.99;61.33
75987;DHT22;64671;44.726;37.764;2022-12-11T06:52:46;19.98;61.43
75987;DHT22;64671;44.726;37.764;2022-12-11T06:53:55;19.98;61.39
75987;DHT22;64671;44.726;37.764;2022-12-11T06:54:56;19.99;61.31
75987;DHT22;64671;44.726;37.764;2022-12-11T06:56:05;20.00;61.25
75987;DHT22;64671;44.726;37.764;2022-12-11T06:57:08;20.01;61.14
75987;DHT22;64671;44.726;37.764;2022-12-11T06:58:10;20.01;62.05
75987;DHT22;64671;44.726;37.764;2022-12-11T06:59:17;20.01;61.70
75987;DHT22;64671;44.726;37.764;2022-12-11T07:00:19;20.02;63.21
75987;DHT22;64671;44.726;37.764;2022-12-11T07:01:25;20.02;62.58
75987;DHT22;64671;44.726;37.764;2022-12-11T07:02:26;20.04;62.84
75987;DHT22;64671;44.726;37.764;2022-12-11T07:03:28;20.04;62.75
75987;DHT22;64671;44.726;37.764;2022-12-11T07:04:29;20.04;63.22
75987;DHT22;64671;44.726;37.764;2022-12-11T07:05:31;20.03;62.73
75987;DHT22;64671;44.726;37.764;2022-12-11T07:06:33;20.03;62.38
75987;DHT22;64671;44.726;37.764;2022-12-11T07:07:34;20.04;61.57
75987;DHT22;64671;44.726;37.764;2022-12-11T07:08:36;20.05;62.80
75987;DHT22;64671;44.726;37.764;2022-12-11T07:09:38;20.05;61.49
75987;DHT22;64671;44.726;37.764;2022-12-11T07:10:39;20.06;63.18
75987;DHT22;64671;44.726;37.764;2022-12-11T07:11:41;20.06;62.13
75987;DHT22;64671;44.726;37.764;2022-12-11T07:12:42;20.07;62.76
75987;DHT22;64671;44.726;37.764;2022-12-11T07:13:44;20.06;62.31
75987;DHT22;64671;44.726;37.764;2022-12-11T07:14:45;20.06;63.37
75987;DHT22;64671;44.726;37.764;2022-12-11T07:15:47;20.07;62.07
75987;DHT22;64671;44.726;37.764;2022-12-11T07:16:49;20.07;62.29
75987;DHT22;64671;44.726;37.764;2022-12-11T07:18:13;20.07;61.70
75987;DHT22;64671;44.726;37.764;2022-12-11T07:19:18;20.10;62.16
75987;DHT22;64671;44.726;37.764;2022-12-11T07:20:19;20.09;61.64
75987;DHT22;64671;44.726;37.764;2022-12-11T07:21:21;20.09;62.07
75987;DHT22;64671;44.726;37.764;2022-12-11T07:22:23;20.09;62.16
75987;DHT22;64671;44.726;37.764;2022-12-11T07:23:27;20.10;61.99
75987;DHT22;64671;44.726;37.764;2022-12-11T07:24:29;20.10;62.06
75987;DHT22;64671;44.726;37.764;2022-12-11T07:25:30;20.10;62.63
75987;DHT22;64671;44.726;37.764;2022-12-11T07:26:31;20.11;62.89
75987;DHT22;64671;44.726;37.764;2022-12-11T07:27:33;20.13;63.10
75987;DHT22;64671;44.726;37.764;2022-12-11T07:28:37;20.13;62.88
75987;DHT22;64671;44.726;37.764;2022-12-11T07:29:52;20.14;62.97
75987;DHT22;64671;44.726;37.764;2022-12-11T07:30:55;20.14;62.88
75987;DHT22;64671;44.726;37.764;2022-12-11T07:31:56;20.15;62.62
75987;DHT22;64671;44.726;37.764;2022-12-11T07:32:58;20.16;62.76
75987;DHT22;64671;44.726;37.764;2022-12-11T07:34:03;20.16;62.57
75987;DHT22;64671;44.726;37.764;2022-12-11T07:35:04;20.18;62.39
75987;DHT22;64671;44.726;37.764;2022-12-11T07:36:08;20.16;62.56
75987;DHT22;64671;44.726;37.764;2022-12-11T07:37:12;20.17;61.91
75987;DHT22;64671;44.726;37.764;2022-12-11T07:38:13;20.19;62.15
75987;DHT22;64671;44.726;37.764;2022-12-11T07:39:14;20.19;62.08
75987;DHT22;64671;44.726;37.764;2022-12-11T07:40:16;20.19;62.09
75987;DHT22;64671;44.726;37.764;2022-12-11T07:41:17;20.21;61.97
75987;DHT22;64671;44.726;37.764;2022-12-11T07:42:27;20.20;61.88
75987;DHT22;64671;44.726;37.764;2022-12-11T07:43:29;20.19;61.83
75987;DHT22;64671;44.726;37.764;2022-12-11T07:44:30;20.20;61.85
75987;DHT22;64671;44.726;37.764;2022-12-11T07:45:31;20.19;61.79
75987;DHT22;64671;44.726;37.764;2022-12-11T07:46:33;20.19;61.70
75987;DHT22;64671;44.726;37.764;2022-12-11T07:47:35;20.18;61.74
75987;DHT22;64671;44.726;37.764;2022-12-11T07:48:37;20.18;61.74
75987;DHT22;64671;44.726;37.764;2022-12-11T07:49:39;20.19;61.77
75987;DHT22;64671;44.726;37.764;2022-12-11T07:50:40;20.18;61.77
75987;DHT22;64671;44.726;37.764;2022-12-11T07:51:42;20.19;61.70
75987;DHT22;64671;44.726;37.764;2022-12-11T07:52:43;20.19;61.67
75987;DHT22;64671;44.726;37.764;2022-12-11T07:53:47;20.18;61.66
75987;DHT22;64671;44.726;37.764;2022-12-11T07:54:49;20.18;61.70
75987;DHT22;64671;44.726;37.764;2022-12-11T07:55:50;20.16;61.74
75987;DHT22;64671;44.726;37.764;2022-12-11T07:56:52;20.18;61.81
75987;DHT22;64671;44.726;37.764;2022-12-11T07:57:53;20.18;61.34
75987;DHT22;64671;44.726;37.764;2022-12-11T07:58:55;20.19;61.62
75987;DHT22;64671;44.726;37.764;2022-12-11T07:59:56;20.20;61.52
75987;DHT22;64671;44.726;37.764;2022-12-11T08:00:57;20.20;61.50
75987;DHT22;64671;44.726;37.764;2022-12-11T08:01:59;20.21;61.56
75987;DHT22;64671;44.726;37.764;2022-12-11T08:03:01;20.20;61.99
75987;DHT22;64671;44.726;37.764;2022-12-11T08:04:04;20.21;61.47
75987;DHT22;64671;44.726;37.764;2022-12-11T08:05:06;20.21;61.66
75987;DHT22;64671;44.726;37.764;2022-12-11T08:06:08;20.21;61.70
75987;DHT22;64671;44.726;37.764;2022-12-11T08:07:10;20.22;61.62
75987;DHT22;64671;44.726;37.764;2022-12-11T08:08:12;20.22;61.26
75987;DHT22;64671;44.726;37.764;2022-12-11T08:09:14;20.25;61.53
75987;DHT22;64671;44.726;37.764;2022-12-11T08:10:15;20.21;61.54
75987;DHT22;64671;44.726;37.764;2022-12-11T08:11:16;20.20;61.91
75987;DHT22;64671;44.726;37.764;2022-12-11T08:12:18;20.21;61.61
75987;DHT22;64671;44.726;37.764;2022-12-11T08:13:19;20.22;61.66
75987;DHT22;64671;44.726;37.764;2022-12-11T08:14:20;20.21;61.55
75987;DHT22;64671;44.726;37.764;2022-12-11T08:15:22;20.22;61.49
75987;DHT22;64671;44.726;37.764;2022-12-11T08:16:23;20.22;61.42
75987;DHT22;64671;44.726;37.764;2022-12-11T08:17:25;20.24;61.50
75987;DHT22;64671;44.726;37.764;2022-12-11T08:18:27;20.22;61.51
75987;DHT22;64671;44.726;37.764;2022-12-11T08:19:28;20.24;61.57
75987;DHT22;64671;44.726;37.764;2022-12-11T08:20:30;20.22;61.52
75987;DHT22;64671;44.726;37.764;2022-12-11T08:21:31;20.24;61.43
75987;DHT22;64671;44.726;37.764;2022-12-11T08:22:33;20.22;61.65
75987;DHT22;64671;44.726;37.764;2022-12-11T08:23:34;20.25;61.50
75987;DHT22;64671;44.726;37.764;2022-12-11T08:24:35;20.24;61.54
75987;DHT22;64671;44.726;37.764;2022-12-11T08:25:37;20.24;61.59
75987;DHT22;64671;44.726;37.764;2022-12-11T08:26:38;20.25;61.46
75987;DHT22;64671;44.726;37.764;2022-12-11T08:27:40;20.24;61.47
75987;DHT22;64671;44.726;37.764;2022-12-11T08:28:41;20.24;61.45